sensor_id;sensor_type;location;lat;lon;timestamp;temperature;humidity
20370;DHT22;10344;47.592;9.600;2023-02-28T00:01:10;-0.40;99.90
20370;DHT22;10344;47.592;9.600;2023-02-28T00:03:36;-0.40;99.90
20370;DHT22;10344;47.592;9.600;2023-02-28T00:06:06;-0.40;99.90
20370;DHT22;10344;47.592;9.600;2023-02-28T00:08:32;-0.40;99.90
20370;DHT22;10344;47.592;9.600;2023-02-28T00:11:08;-0.40;99.90
20370;DHT22;10344;47.592;9.600;2023-02-28T00:13:46;-0.30;99.90
20370;DHT22;10344;47.592;9.600;2023-02-28T00:16:15;-0.30;99.90
20370;DHT22;10344;47.592;9.600;2023-02-28T00:18:41;-0.30;99.90
20370;DHT22;10344;47.592;9.600;2023-02-28T00:21:07;-0.30;99.90
20370;DHT22;10344;47.592;9.600;2023-02-28T00:23:33;-0.30;99.90
20370;DHT22;10344;47.592;9.600;2023-02-28T00:25:58;-0.40;99.90
20370;DHT22;10344;47.592;9.600;2023-02-28T00:28:24;-0.30;99.90
20370;DHT22;10344;47.592;9.600;2023-02-28T00:30:50;-0.40;99.90
20370;DHT22;10344;47.592;9.600;2023-02-28T00:33:16;-0.40;99.90
20370;DHT22;10344;47.592;9.600;2023-02-28T00:35:44;-0.40;99.90
20370;DHT22;10344;47.592;9.600;2023-02-28T00:38:13;-0.30;99.90
20370;DHT22;10344;47.592;9.600;2023-02-28T00:40:39;-0.40;99.90
20370;DHT22;10344;47.592;9.600;2023-02-28T00:43:04;-0.30;99.90
20370;DHT22;10344;47.592;9.600;2023-02-28T00:45:30;-0.30;99.90
20370;DHT22;10344;47.592;9.600;2023-02-28T00:47:56;-0.40;99.90
20370;DHT22;10344;47.592;9.600;2023-02-28T00:50:22;-0.30;99.90
20370;DHT22;10344;47.592;9.600;2023-02-28T00:52:48;-0.30;99.90
20370;DHT22;10344;47.592;9.600;2023-02-28T00:55:14;-0.30;99.90
20370;DHT22;10344;47.592;9.600;2023-02-28T00:57:40;-0.30;99.90
20370;DHT22;10344;47.592;9.600;2023-02-28T01:00:06;-0.30;99.90
20370;DHT22;10344;47.592;9.600;2023-02-28T01:02:33;-0.30;99.90
20370;DHT22;10344;47.592;9.600;2023-02-28T01:05:02;-0.20;99.90
20370;DHT22;10344;47.592;9.600;2023-02-28T01:07:28;-0.20;99.90
20370;DHT22;10344;47.592;9.600;2023-02-28T01:09:54;-0.20;99.90
20370;DHT22;10344;47.592;9.600;2023-02-28T01:12:19;-0.20;99.90
20370;DHT22;10344;47.592;9.600;2023-02-28T01:14:48;-0.10;99.90
20370;DHT22;10344;47.592;9.600;2023-02-28T01:17:14;-0.20;99.90
20370;DHT22;10344;47.592;9.600;2023-02-28T01:19:40;-0.10;99.90
20370;DHT22;10344;47.592;9.600;2023-02-28T01:22:09;-0.20;99.90
20370;DHT22;10344;47.592;9.600;2023-02-28T01:24:37;-0.20;99.90
20370;DHT22;10344;47.592;9.600;2023-02-28T01:27:03;-0.20;99.90
20370;DHT22;10344;47.592;9.600;2023-02-28T01:29:28;-0.10;99.90
20370;DHT22;10344;47.592;9.600;2023-02-28T01:31:54;-0.10;99.90
20370;DHT22;10344;47.592;9.600;2023-02-28T01:34:25;-0.10;99.90
20370;DHT22;10344;47.592;9.600;2023-02-28T01:36:51;-0.20;99.90
20370;DHT22;10344;47.592;9.600;2023-02-28T01:39:16;-0.20;99.90
20370;DHT22;10344;47.592;9.600;2023-02-28T01:41:43;-0.20;99.90
20370;DHT22;10344;47.592;9.600;2023-02-28T01:47:15;-0.30;99.90
20370;DHT22;10344;47.592;9.600;2023-02-28T01:49:41;-0.30;99.90
20370;DHT22;10344;47.592;9.600;2023-02-28T01:52:08;-0.40;99.90
20370;DHT22;10344;47.592;9.600;2023-02-28T01:54:51;-0.40;99.90
20370;DHT22;10344;47.592;9.600;2023-02-28T01:57:19;-0.40;99.90
20370;DHT22;10344;47.592;9.600;2023-02-28T02:02:20;-0.40;99.90
20370;DHT22;10344;47.592;9.600;2023-02-28T02:05:18;-0.50;99.90
20370;DHT22;10344;47.592;9.600;2023-02-28T02:07:54;-0.50;99.90
20370;DHT22;10344;47.592;9.600;2023-02-28T02:13:34;-0.50;99.90
20370;DHT22;10344;47.592;9.600;2023-02-28T02:16:07;-0.40;99.90
20370;DHT22;10344;47.592;9.600;2023-02-28T02:38:45;-0.50;99.90
20370;DHT22;10344;47.592;9.600;2023-02-28T02:45:06;-0.50;99.90
20370;DHT22;10344;47.592;9.600;2023-02-28T02:47:38;-0.60;99.90
20370;DHT22;10344;47.592;9.600;2023-02-28T02:50:19;-0.60;99.90
20370;DHT22;10344;47.592;9.600;2023-02-28T02:52:55;-0.60;99.90
20370;DHT22;10344;47.592;9.600;2023-02-28T02:55:26;-0.60;99.90
20370;DHT22;10344;47.592;9.600;2023-02-28T02:58:08;-0.70;99.90
20370;DHT22;10344;47.592;9.600;2023-02-28T03:00:43;-0.70;99.90
20370;DHT22;10344;47.592;9.600;2023-02-28T03:03:12;-0.70;99.90
20370;DHT22;10344;47.592;9.600;2023-02-28T03:05:46;-0.70;99.90
20370;DHT22;10344;47.592;9.600;2023-02-28T03:08:14;-0.70;99.90
20370;DHT22;10344;47.592;9.600;2023-02-28T03:10:45;-0.70;99.90
20370;DHT22;10344;47.592;9.600;2023-02-28T03:30:51;-0.80;99.90
20370;DHT22;10344;47.592;9.600;2023-02-28T03:33:23;-0.90;99.90
20370;DHT22;10344;47.592;9.600;2023-02-28T03:36:02;-0.80;99.90
20370;DHT22;10344;47.592;9.600;2023-02-28T03:38:33;-0.70;99.90
20370;DHT22;10344;47.592;9.600;2023-02-28T03:41:15;-0.70;99.90
20370;DHT22;10344;47.592;9.600;2023-02-28T03:43:45;-0.70;99.90
20370;DHT22;10344;47.592;9.600;2023-02-28T03:46:18;-0.70;99.90
20370;DHT22;10344;47.592;9.600;2023-02-28T03:49:17;-0.80;99.90
20370;DHT22;10344;47.592;9.600;2023-02-28T03:51:46;-0.70;99.90
20370;DHT22;10344;47.592;9.600;2023-02-28T03:54:21;-0.70;99.90
20370;DHT22;10344;47.592;9.600;2023-02-28T03:56:50;-0.70;99.90
20370;DHT22;10344;47.592;9.600;2023-02-28T04:02:04;-0.70;99.90
20370;DHT22;10344;47.592;9.600;2023-02-28T04:04:35;-0.70;99.90
20370;DHT22;10344;47.592;9.600;2023-02-28T04:07:06;-0.80;99.90
20370;DHT22;10344;47.592;9.600;2023-02-28T04:09:32;-0.70;99.90
20370;DHT22;10344;47.592;9.600;2023-02-28T04:12:00;-0.80;99.90
20370;DHT22;10344;47.592;9.600;2023-02-28T04:14:26;-0.80;99.90
20370;DHT22;10344;47.592;9.600;2023-02-28T04:16:52;-0.90;99.90
20370;DHT22;10344;47.592;9.600;2023-02-28T04:19:18;-0.90;99.90
20370;DHT22;10344;47.592;9.600;2023-02-28T04:21:46;-0.80;99.90
20370;DHT22;10344;47.592;9.600;2023-02-28T04:24:15;-0.90;99.90
20370;DHT22;10344;47.592;9.600;2023-02-28T04:26:46;-0.80;99.90
20370;DHT22;10344;47.592;9.600;2023-02-28T04:29:21;-0.90;99.90
20370;DHT22;10344;47.592;9.600;2023-02-28T04:31:53;-0.90;99.90
20370;DHT22;10344;47.592;9.600;2023-02-28T04:34:20;-0.90;99.90
20370;DHT22;10344;47.592;9.600;2023-02-28T04:36:55;-0.90;99.90
20370;DHT22;10344;47.592;9.600;2023-02-28T04:39:23;-0.90;99.90
20370;DHT22;10344;47.592;9.600;2023-02-28T04:41:52;-0.80;99.90
20370;DHT22;10344;47.592;9.600;2023-02-28T04:44:19;-0.90;99.90
20370;DHT22;10344;47.592;9.600;2023-02-28T04:46:48;-0.80;99.90
20370;DHT22;10344;47.592;9.600;2023-02-28T04:49:14;-0.80;99.90
20370;DHT22;10344;47.592;9.600;2023-02-28T04:51:45;-0.80;99.90
20370;DHT22;10344;47.592;9.600;2023-02-28T04:54:11;-0.80;99.90
20370;DHT22;10344;47.592;9.600;2023-02-28T04:56:38;-0.80;99.90
20370;DHT22;10344;47.592;9.600;2023-02-28T04:59:12;-0.80;99.90
20370;DHT22;10344;47.592;9.600;2023-02-28T05:01:39;-0.80;99.90
20370;DHT22;10344;47.592;9.600;2023-02-28T05:04:08;-0.80;99.90
20370;DHT22;10344;47.592;9.600;2023-02-28T05:06:34;-0.90;99.90
20370;DHT22;10344;47.592;9.600;2023-02-28T05:09:00;-0.90;99.90
20370;DHT22;10344;47.592;9.600;2023-02-28T05:11:29;-0.80;99.90
20370;DHT22;10344;47.592;9.600;2023-02-28T05:14:10;-0.80;99.90
20370;DHT22;10344;47.592;9.600;2023-02-28T05:16:36;-0.80;99.90
20370;DHT22;10344;47.592;9.600;2023-02-28T05:19:03;-0.90;99.90
20370;DHT22;10344;47.592;9.600;2023-02-28T05:21:32;-0.90;99.90
20370;DHT22;10344;47.592;9.600;2023-02-28T05:24:00;-0.90;99.90
20370;DHT22;10344;47.592;9.600;2023-02-28T05:26:26;-0.80;99.90
20370;DHT22;10344;47.592;9.600;2023-02-28T05:28:56;-0.80;99.90
20370;DHT22;10344;47.592;9.600;2023-02-28T05:31:22;-0.90;99.90
20370;DHT22;10344;47.592;9.600;2023-02-28T05:33:48;-0.90;99.90
20370;DHT22;10344;47.592;9.600;2023-02-28T05:36:14;-0.90;99.90
20370;DHT22;10344;47.592;9.600;2023-02-28T05:38:39;-0.90;99.90
20370;DHT22;10344;47.592;9.600;2023-02-28T05:41:09;-0.90;99.90
20370;DHT22;10344;47.592;9.600;2023-02-28T05:43:36;-0.90;99.90
20370;DHT22;10344;47.592;9.600;2023-02-28T05:46:09;-0.90;99.90
20370;DHT22;10344;47.592;9.600;2023-02-28T05:48:41;-0.90;99.90
20370;DHT22;10344;47.592;9.600;2023-02-28T05:51:27;-1.00;99.90
20370;DHT22;10344;47.592;9.600;2023-02-28T05:53:53;-1.00;99.90
20370;DHT22;10344;47.592;9.600;2023-02-28T05:56:19;-0.90;99.90
20370;DHT22;10344;47.592;9.600;2023-02-28T05:58:47;-1.00;99.90
20370;DHT22;10344;47.592;9.600;2023-02-28T06:01:42;-1.10;99.90
20370;DHT22;10344;47.592;9.600;2023-02-28T06:04:14;-1.10;99.90
20370;DHT22;10344;47.592;9.600;2023-02-28T06:06:43;-1.10;99.90
20370;DHT22;10344;47.592;9.600;2023-02-28T06:09:10;-1.10;99.90
20370;DHT22;10344;47.592;9.600;2023-02-28T06:11:36;-1.10;99.90
20370;DHT22;10344;47.592;9.600;2023-02-28T06:14:02;-1.20;99.90
20370;DHT22;10344;47.592;9.600;2023-02-28T06:16:29;-1.20;99.90
20370;DHT22;10344;47.592;9.600;2023-02-28T06:18:57;-1.20;99.90
20370;DHT22;10344;47.592;9.600;2023-02-28T06:21:24;-1.10;99.90
20370;DHT22;10344;47.592;9.600;2023-02-28T06:23:50;-1.20;99.90
20370;DHT22;10344;47.592;9.600;2023-02-28T06:26:16;-1.10;99.90
20370;DHT22;10344;47.592;9.600;2023-02-28T06:28:41;-1.10;99.90
20370;DHT22;10344;47.592;9.600;2023-02-28T06:31:11;-1.10;99.90
20370;DHT22;10344;47.592;9.600;2023-02-28T06:33:44;-1.10;99.90
20370;DHT22;10344;47.592;9.600;2023-02-28T06:36:12;-1.00;99.90
20370;DHT22;10344;47.592;9.600;2023-02-28T06:38:39;-1.00;99.90
20370;DHT22;10344;47.592;9.600;2023-02-28T06:41:07;-1.10;99.90
20370;DHT22;10344;47.592;9.600;2023-02-28T06:43:41;-1.10;99.90
20370;DHT22;10344;47.592;9.600;2023-02-28T06:46:10;-1.00;99.90
20370;DHT22;10344;47.592;9.600;2023-02-28T06:48:45;-1.00;99.90
20370;DHT22;10344;47.592;9.600;2023-02-28T06:51:19;-1.00;99.90
20370;DHT22;10344;47.592;9.600;2023-02-28T06:53:50;-0.90;99.90
20370;DHT22;10344;47.592;9.600;2023-02-28T06:56:19;-0.90;99.90
20370;DHT22;10344;47.592;9.600;2023-02-28T06:58:49;-0.80;99.90
20370;DHT22;10344;47.592;9.600;2023-02-28T07:01:16;-0.70;99.90
20370;DHT22;10344;47.592;9.600;2023-02-28T07:03:43;-0.60;99.90
20370;DHT22;10344;47.592;9.600;2023-02-28T07:06:09;-0.60;99.90
20370;DHT22;10344;47.592;9.600;2023-02-28T07:08:35;-0.60;99.90
20370;DHT22;10344;47.592;9.600;2023-02-28T07:11:01;-0.60;99.90
20370;DHT22;10344;47.592;9.600;2023-02-28T07:13:28;-0.50;99.90
20370;DHT22;10344;47.592;9.600;2023-02-28T07:16:04;-0.50;99.90
20370;DHT22;10344;47.592;9.600;2023-02-28T07:18:31;-0.40;99.90
20370;DHT22;10344;47.592;9.600;2023-02-28T07:20:57;-0.40;99.90
20370;DHT22;10344;47.592;9.600;2023-02-28T07:23:27;-0.40;99.90
20370;DHT22;10344;47.592;9.600;2023-02-28T07:25:53;-0.40;99.90
20370;DHT22;10344;47.592;9.600;2023-02-28T07:28:19;-0.40;99.90
20370;DHT22;10344;47.592;9.600;2023-02-28T07:30:45;-0.30;99.90
20370;DHT22;10344;47.592;9.600;2023-02-28T07:33:10;-0.30;99.90
20370;DHT22;10344;47.592;9.600;2023-02-28T07:35:36;-0.20;99.90
20370;DHT22;10344;47.592;9.600;2023-02-28T07:38:02;-0.10;99.90
20370;DHT22;10344;47.592;9.600;2023-02-28T07:40:28;0.10;99.90
20370;DHT22;10344;47.592;9.600;2023-02-28T07:42:54;0.10;99.90
20370;DHT22;10344;47.592;9.600;2023-02-28T07:45:20;0.30;99.90
20370;DHT22;10344;47.592;9.600;2023-02-28T07:47:48;0.30;99.90
20370;DHT22;10344;47.592;9.600;2023-02-28T07:50:17;0.40;99.90
20370;DHT22;10344;47.592;9.600;2023-02-28T07:52:43;0.40;99.90
20370;DHT22;10344;47.592;9.600;2023-02-28T07:55:12;0.70;99.90
20370;DHT22;10344;47.592;9.600;2023-02-28T07:57:39;0.90;99.90
20370;DHT22;10344;47.592;9.600;2023-02-28T08:00:09;1.10;99.90
20370;DHT22;10344;47.592;9.600;2023-02-28T08:02:39;1.20;99.90
20370;DHT22;10344;47.592;9.600;2023-02-28T08:05:08;1.30;99.90
20370;DHT22;10344;47.592;9.600;2023-02-28T08:07:33;1.50;99.90
20370;DHT22;10344;47.592;9.600;2023-02-28T08:10:03;1.70;99.90
20370;DHT22;10344;47.592;9.600;2023-02-28T08:12:30;1.60;99.90
20370;DHT22;10344;47.592;9.600;2023-02-28T08:14:56;1.60;99.90
20370;DHT22;10344;47.592;9.600;2023-02-28T08:17:25;1.60;99.90
20370;DHT22;10344;47.592;9.600;2023-02-28T08:19:50;1.60;99.90
20370;DHT22;10344;47.592;9.600;2023-02-28T08:22:16;1.70;99.90
20370;DHT22;10344;47.592;9.600;2023-02-28T08:24:44;1.90;99.90
20370;DHT22;10344;47.592;9.600;2023-02-28T08:27:16;1.90;99.90
20370;DHT22;10344;47.592;9.600;2023-02-28T08:29:42;2.00;99.90
20370;DHT22;10344;47.592;9.600;2023-02-28T08:32:08;1.90;99.90
20370;DHT22;10344;47.592;9.600;2023-02-28T08:34:39;1.90;99.90
20370;DHT22;10344;47.592;9.600;2023-02-28T08:37:06;1.90;99.90
20370;DHT22;10344;47.592;9.600;2023-02-28T08:39:37;1.80;99.90
20370;DHT22;10344;47.592;9.600;2023-02-28T08:42:03;1.90;99.90
20370;DHT22;10344;47.592;9.600;2023-02-28T08:44:29;2.00;99.90
20370;DHT22;10344;47.592;9.600;2023-02-28T08:46:54;2.40;99.90
20370;DHT22;10344;47.592;9.600;2023-02-28T08:49:27;3.10;99.90
20370;DHT22;10344;47.592;9.600;2023-02-28T08:51:54;3.60;99.90
20370;DHT22;10344;47.592;9.600;2023-02-28T08:54:20;4.30;99.90
20370;DHT22;10344;47.592;9.600;2023-02-28T08:56:52;4.80;99.90
20370;DHT22;10344;47.592;9.600;2023-02-28T08:59:18;5.20;99.90
20370;DHT22;10344;47.592;9.600;2023-02-28T09:01:43;5.90;99.90
20370;DHT22;10344;47.592;9.600;2023-02-28T09:04:09;6.60;99.90
20370;DHT22;10344;47.592;9.600;2023-02-28T09:06:38;7.10;99.90
20370;DHT22;10344;47.592;9.600;2023-02-28T09:09:04;7.70;99.90
20370;DHT22;10344;47.592;9.600;2023-02-28T09:11:33;8.30;99.90
20370;DHT22;10344;47.592;9.600;2023-02-28T09:14:02;8.70;99.90
20370;DHT22;10344;47.592;9.600;2023-02-28T09:16:29;9.40;99.90
20370;DHT22;10344;47.592;9.600;2023-02-28T09:18:56;10.70;99.90
20370;DHT22;10344;47.592;9.600;2023-02-28T09:21:29;11.90;99.90
20370;DHT22;10344;47.592;9.600;2023-02-28T09:23:54;12.60;99.90
20370;DHT22;10344;47.592;9.600;2023-02-28T09:26:28;13.10;98.90
20370;DHT22;10344;47.592;9.600;2023-02-28T09:28:56;13.50;95.50
20370;DHT22;10344;47.592;9.600;2023-02-28T09:31:30;13.50;95.00
20370;DHT22;10344;47.592;9.600;2023-02-28T09:33:56;14.10;94.30
20370;DHT22;10344;47.592;9.600;2023-02-28T09:36:26;13.80;93.70
20370;DHT22;10344;47.592;9.600;2023-02-28T09:38:55;13.90;92.70
20370;DHT22;10344;47.592;9.600;2023-02-28T09:41:25;14.20;93.20
20370;DHT22;10344;47.592;9.600;2023-02-28T09:43:57;14.10;91.80
20370;DHT22;10344;47.592;9.600;2023-02-28T09:46:32;14.00;91.50
20370;DHT22;10344;47.592;9.600;2023-02-28T09:49:04;13.20;90.40
20370;DHT22;10344;47.592;9.600;2023-02-28T09:54:22;11.40;93.10
20370;DHT22;10344;47.592;9.600;2023-02-28T09:59:31;9.90;94.80
20370;DHT22;10344;47.592;9.600;2023-02-28T10:05:18;9.40;96.60
20370;DHT22;10344;47.592;9.600;2023-02-28T10:10:40;10.10;95.80
20370;DHT22;10344;47.592;9.600;2023-02-28T10:13:36;10.40;95.60
20370;DHT22;10344;47.592;9.600;2023-02-28T10:22:22;10.00;96.10
20370;DHT22;10344;47.592;9.600;2023-02-28T10:24:54;10.10;96.10
20370;DHT22;10344;47.592;9.600;2023-02-28T10:27:30;10.10;94.90
20370;DHT22;10344;47.592;9.600;2023-02-28T10:30:00;9.10;95.80
20370;DHT22;10344;47.592;9.600;2023-02-28T10:32:30;9.40;96.60
20370;DHT22;10344;47.592;9.600;2023-02-28T10:37:40;11.60;94.70
20370;DHT22;10344;47.592;9.600;2023-02-28T10:40:46;11.50;93.40
20370;DHT22;10344;47.592;9.600;2023-02-28T10:55:42;9.40;95.90
20370;DHT22;10344;47.592;9.600;2023-02-28T10:58:23;8.90;97.80
20370;DHT22;10344;47.592;9.600;2023-02-28T11:00:51;8.70;97.40
20370;DHT22;10344;47.592;9.600;2023-02-28T11:03:29;8.50;98.10
20370;DHT22;10344;47.592;9.600;2023-02-28T11:05:55;8.70;98.50
20370;DHT22;10344;47.592;9.600;2023-02-28T11:08:26;9.40;98.80
20370;DHT22;10344;47.592;9.600;2023-02-28T11:10:57;10.10;97.80
20370;DHT22;10344;47.592;9.600;2023-02-28T11:13:33;10.30;96.30
20370;DHT22;10344;47.592;9.600;2023-02-28T11:16:03;10.50;96.90
20370;DHT22;10344;47.592;9.600;2023-02-28T11:21:31;11.00;96.50
20370;DHT22;10344;47.592;9.600;2023-02-28T11:24:26;11.10;96.80
20370;DHT22;10344;47.592;9.600;2023-02-28T11:26:55;10.90;95.70
20370;DHT22;10344;47.592;9.600;2023-02-28T11:34:39;10.70;96.40
20370;DHT22;10344;47.592;9.600;2023-02-28T11:37:17;10.40;95.40
20370;DHT22;10344;47.592;9.600;2023-02-28T11:39:44;9.70;96.80
20370;DHT22;10344;47.592;9.600;2023-02-28T11:45:22;9.10;98.40
20370;DHT22;10344;47.592;9.600;2023-02-28T11:48:32;9.00;97.90
20370;DHT22;10344;47.592;9.600;2023-02-28T11:51:05;9.00;98.70
20370;DHT22;10344;47.592;9.600;2023-02-28T11:56:39;9.20;99.10
20370;DHT22;10344;47.592;9.600;2023-02-28T11:59:24;9.20;98.40
20370;DHT22;10344;47.592;9.600;2023-02-28T12:05:27;9.00;97.30
20370;DHT22;10344;47.592;9.600;2023-02-28T12:10:29;7.90;98.80
20370;DHT22;10344;47.592;9.600;2023-02-28T12:26:46;8.60;99.40
20370;DHT22;10344;47.592;9.600;2023-02-28T12:29:29;8.80;99.30
20370;DHT22;10344;47.592;9.600;2023-02-28T12:35:03;8.80;98.90
20370;DHT22;10344;47.592;9.600;2023-02-28T12:37:59;8.70;98.60
20370;DHT22;10344;47.592;9.600;2023-02-28T12:40:52;9.00;99.30
20370;DHT22;10344;47.592;9.600;2023-02-28T12:43:37;9.10;98.90
20370;DHT22;10344;47.592;9.600;2023-02-28T12:46:28;9.40;99.00
20370;DHT22;10344;47.592;9.600;2023-02-28T12:56:15;7.70;99.50
20370;DHT22;10344;47.592;9.600;2023-02-28T12:59:03;8.00;99.90
20370;DHT22;10344;47.592;9.600;2023-02-28T13:11:01;7.90;99.10
20370;DHT22;10344;47.592;9.600;2023-02-28T13:13:30;7.40;99.60
20370;DHT22;10344;47.592;9.600;2023-02-28T13:26:12;6.70;99.90
20370;DHT22;10344;47.592;9.600;2023-02-28T13:31:20;8.00;99.30
20370;DHT22;10344;47.592;9.600;2023-02-28T13:36:35;6.60;99.90
20370;DHT22;10344;47.592;9.600;2023-02-28T13:48:36;7.90;99.60
20370;DHT22;10344;47.592;9.600;2023-02-28T14:46:12;11.40;94.50
20370;DHT22;10344;47.592;9.600;2023-02-28T14:54:43;8.80;97.80
20370;DHT22;10344;47.592;9.600;2023-02-28T14:57:31;8.60;97.80
20370;DHT22;10344;47.592;9.600;2023-02-28T15:02:43;6.50;99.90
20370;DHT22;10344;47.592;9.600;2023-02-28T15:05:16;5.50;99.90
20370;DHT22;10344;47.592;9.600;2023-02-28T15:08:33;4.90;99.90
20370;DHT22;10344;47.592;9.600;2023-02-28T15:10:58;4.30;99.90
20370;DHT22;10344;47.592;9.600;2023-02-28T15:13:43;4.00;99.90
20370;DHT22;10344;47.592;9.600;2023-02-28T15:21:39;3.50;99.90
20370;DHT22;10344;47.592;9.600;2023-02-28T15:26:54;3.10;99.90
20370;DHT22;10344;47.592;9.600;2023-02-28T15:29:26;3.00;99.90
20370;DHT22;10344;47.592;9.600;2023-02-28T15:31:58;2.90;99.90
20370;DHT22;10344;47.592;9.600;2023-02-28T15:34:42;2.90;99.90
20370;DHT22;10344;47.592;9.600;2023-02-28T15:40:40;2.90;99.90
20370;DHT22;10344;47.592;9.600;2023-02-28T15:43:19;2.90;99.90
20370;DHT22;10344;47.592;9.600;2023-02-28T15:46:06;2.70;99.90
20370;DHT22;10344;47.592;9.600;2023-02-28T15:48:38;2.70;99.90
20370;DHT22;10344;47.592;9.600;2023-02-28T15:53:56;2.60;99.90
20370;DHT22;10344;47.592;9.600;2023-02-28T15:58:58;2.60;99.90
20370;DHT22;10344;47.592;9.600;2023-02-28T16:01:32;2.50;99.90
20370;DHT22;10344;47.592;9.600;2023-02-28T16:04:18;2.50;99.90
20370;DHT22;10344;47.592;9.600;2023-02-28T16:07:01;2.40;99.90
20370;DHT22;10344;47.592;9.600;2023-02-28T16:09:32;2.40;99.90
20370;DHT22;10344;47.592;9.600;2023-02-28T16:12:02;2.40;99.90
20370;DHT22;10344;47.592;9.600;2023-02-28T16:14:31;2.40;99.90
20370;DHT22;10344;47.592;9.600;2023-02-28T16:17:20;2.30;99.90
20370;DHT22;10344;47.592;9.600;2023-02-28T16:19:46;2.30;99.90
20370;DHT22;10344;47.592;9.600;2023-02-28T16:22:12;2.20;99.90
20370;DHT22;10344;47.592;9.600;2023-02-28T16:24:43;2.10;99.90
20370;DHT22;10344;47.592;9.600;2023-02-28T16:27:31;2.10;99.90
20370;DHT22;10344;47.592;9.600;2023-02-28T16:29:57;2.10;99.90
20370;DHT22;10344;47.592;9.600;2023-02-28T16:32:23;2.10;99.90
20370;DHT22;10344;47.592;9.600;2023-02-28T16:34:49;2.10;99.90
20370;DHT22;10344;47.592;9.600;2023-02-28T16:37:18;2.10;99.90
20370;DHT22;10344;47.592;9.600;2023-02-28T16:39:44;2.10;99.90
20370;DHT22;10344;47.592;9.600;2023-02-28T16:42:20;2.00;99.90
20370;DHT22;10344;47.592;9.600;2023-02-28T16:44:48;1.90;99.90
20370;DHT22;10344;47.592;9.600;2023-02-28T16:47:14;1.90;99.90
20370;DHT22;10344;47.592;9.600;2023-02-28T16:49:42;1.90;99.90
20370;DHT22;10344;47.592;9.600;2023-02-28T16:52:11;1.80;99.90
20370;DHT22;10344;47.592;9.600;2023-02-28T16:54:38;1.70;99.90
20370;DHT22;10344;47.592;9.600;2023-02-28T16:57:05;1.70;99.90
20370;DHT22;10344;47.592;9.600;2023-02-28T16:59:34;1.60;99.90
20370;DHT22;10344;47.592;9.600;2023-02-28T17:02:00;1.60;99.90
20370;DHT22;10344;47.592;9.600;2023-02-28T17:04:26;1.60;99.90
20370;DHT22;10344;47.592;9.600;2023-02-28T17:06:51;1.50;99.90
20370;DHT22;10344;47.592;9.600;2023-02-28T17:09:22;1.50;99.90
20370;DHT22;10344;47.592;9.600;2023-02-28T17:11:49;1.40;99.90
20370;DHT22;10344;47.592;9.600;2023-02-28T17:14:15;1.40;99.90
20370;DHT22;10344;47.592;9.600;2023-02-28T17:16:41;1.40;99.90
20370;DHT22;10344;47.592;9.600;2023-02-28T17:19:14;1.30;99.90
20370;DHT22;10344;47.592;9.600;2023-02-28T17:21:41;1.30;99.90
20370;DHT22;10344;47.592;9.600;2023-02-28T17:24:08;1.30;99.90
20370;DHT22;10344;47.592;9.600;2023-02-28T17:26:40;1.30;99.90
20370;DHT22;10344;47.592;9.600;2023-02-28T17:29:18;1.40;99.90
20370;DHT22;10344;47.592;9.600;2023-02-28T17:31:44;1.30;99.90
20370;DHT22;10344;47.592;9.600;2023-02-28T17:34:10;1.30;99.90
20370;DHT22;10344;47.592;9.600;2023-02-28T17:36:36;1.30;99.90
20370;DHT22;10344;47.592;9.600;2023-02-28T17:39:09;1.30;99.90
20370;DHT22;10344;47.592;9.600;2023-02-28T17:41:36;1.40;99.90
20370;DHT22;10344;47.592;9.600;2023-02-28T17:44:01;1.30;99.90
20370;DHT22;10344;47.592;9.600;2023-02-28T17:46:33;1.30;99.90
20370;DHT22;10344;47.592;9.600;2023-02-28T17:48:58;1.30;99.90
20370;DHT22;10344;47.592;9.600;2023-02-28T17:51:25;1.30;99.90
20370;DHT22;10344;47.592;9.600;2023-02-28T17:54:00;1.40;99.90
20370;DHT22;10344;47.592;9.600;2023-02-28T17:56:26;1.40;99.90
20370;DHT22;10344;47.592;9.600;2023-02-28T17:58:53;1.40;99.90
20370;DHT22;10344;47.592;9.600;2023-02-28T18:01:23;1.50;99.90
20370;DHT22;10344;47.592;9.600;2023-02-28T18:04:00;1.50;99.90
20370;DHT22;10344;47.592;9.600;2023-02-28T18:06:28;1.50;99.90
20370;DHT22;10344;47.592;9.600;2023-02-28T18:09:22;1.50;99.90
20370;DHT22;10344;47.592;9.600;2023-02-28T18:11:52;1.40;99.90
20370;DHT22;10344;47.592;9.600;2023-02-28T18:14:19;1.50;99.90
20370;DHT22;10344;47.592;9.600;2023-02-28T18:16:45;1.40;99.90
20370;DHT22;10344;47.592;9.600;2023-02-28T18:19:15;1.40;99.90
20370;DHT22;10344;47.592;9.600;2023-02-28T18:21:47;1.40;99.90
20370;DHT22;10344;47.592;9.600;2023-02-28T18:24:20;1.40;99.90
20370;DHT22;10344;47.592;9.600;2023-02-28T18:26:47;1.30;99.90
20370;DHT22;10344;47.592;9.600;2023-02-28T18:29:22;1.20;99.90
20370;DHT22;10344;47.592;9.600;2023-02-28T18:31:48;1.20;99.90
20370;DHT22;10344;47.592;9.600;2023-02-28T18:34:15;1.20;99.90
20370;DHT22;10344;47.592;9.600;2023-02-28T18:36:41;1.20;99.90
20370;DHT22;10344;47.592;9.600;2023-02-28T18:39:08;1.10;99.90
20370;DHT22;10344;47.592;9.600;2023-02-28T18:41:33;1.20;99.90
20370;DHT22;10344;47.592;9.600;2023-02-28T18:44:03;1.10;99.90
20370;DHT22;10344;47.592;9.600;2023-02-28T18:46:29;1.20;99.90
20370;DHT22;10344;47.592;9.600;2023-02-28T18:48:55;1.20;99.90
20370;DHT22;10344;47.592;9.600;2023-02-28T18:51:23;1.20;99.90
20370;DHT22;10344;47.592;9.600;2023-02-28T18:53:49;1.20;99.90
20370;DHT22;10344;47.592;9.600;2023-02-28T18:56:20;1.20;99.90
20370;DHT22;10344;47.592;9.600;2023-02-28T18:58:46;1.20;99.90
20370;DHT22;10344;47.592;9.600;2023-02-28T19:01:22;1.20;99.90
20370;DHT22;10344;47.592;9.600;2023-02-28T19:03:49;1.20;99.90
20370;DHT22;10344;47.592;9.600;2023-02-28T19:06:17;1.20;99.90
20370;DHT22;10344;47.592;9.600;2023-02-28T19:08:45;1.20;99.90
20370;DHT22;10344;47.592;9.600;2023-02-28T19:11:17;1.20;99.90
20370;DHT22;10344;47.592;9.600;2023-02-28T19:13:44;1.20;99.90
20370;DHT22;10344;47.592;9.600;2023-02-28T19:16:11;1.10;99.90
20370;DHT22;10344;47.592;9.600;2023-02-28T19:18:42;1.00;99.90
20370;DHT22;10344;47.592;9.600;2023-02-28T19:21:09;0.90;99.90
20370;DHT22;10344;47.592;9.600;2023-02-28T19:23:35;0.80;99.90
20370;DHT22;10344;47.592;9.600;2023-02-28T19:26:15;0.80;99.90
20370;DHT22;10344;47.592;9.600;2023-02-28T19:28:42;0.80;99.90
20370;DHT22;10344;47.592;9.600;2023-02-28T19:31:20;0.70;99.90
20370;DHT22;10344;47.592;9.600;2023-02-28T19:33:46;0.80;99.90
20370;DHT22;10344;47.592;9.600;2023-02-28T19:36:13;0.80;99.90
20370;DHT22;10344;47.592;9.600;2023-02-28T19:38:40;0.90;99.90
20370;DHT22;10344;47.592;9.600;2023-02-28T19:41:08;0.80;99.90
20370;DHT22;10344;47.592;9.600;2023-02-28T19:43:36;0.70;99.90
20370;DHT22;10344;47.592;9.600;2023-02-28T19:46:04;0.70;99.90
20370;DHT22;10344;47.592;9.600;2023-02-28T19:48:31;0.80;99.90
20370;DHT22;10344;47.592;9.600;2023-02-28T20:00:31;0.70;99.90
20370;DHT22;10344;47.592;9.600;2023-02-28T20:02:57;0.80;99.90
20370;DHT22;10344;47.592;9.600;2023-02-28T20:05:29;0.60;99.90
20370;DHT22;10344;47.592;9.600;2023-02-28T20:07:55;0.60;99.90
20370;DHT22;10344;47.592;9.600;2023-02-28T20:10:20;0.60;99.90
20370;DHT22;10344;47.592;9.600;2023-02-28T20:12:46;0.50;99.90